createdAt,value
2019-05-12T00:01:39.698Z,2.17
2019-05-12T00:04:27.925Z,2.23
2019-05-12T00:07:13.785Z,2.50
2019-05-12T00:09:59.849Z,2.07
2019-05-12T00:12:48.201Z,2.20
2019-05-12T00:15:33.834Z,2.20
2019-05-12T00:18:19.754Z,2.30
2019-05-12T00:21:05.798Z,2.20
2019-05-12T00:24:28.446Z,2.00
2019-05-12T00:27:17.908Z,2.30
2019-05-12T00:30:04.021Z,2.60
2019-05-12T00:32:49.994Z,2.20
2019-05-12T00:35:38.121Z,2.63
2019-05-12T00:38:24.549Z,2.47
2019-05-12T00:41:10.471Z,3.37
2019-05-12T00:43:58.235Z,3.20
2019-05-12T00:46:44.575Z,2.90
2019-05-12T00:49:30.506Z,3.33
2019-05-12T00:52:18.672Z,3.67
2019-05-12T00:55:04.423Z,3.30
2019-05-12T00:57:50.287Z,3.63
2019-05-12T01:00:39.478Z,3.50
2019-05-12T01:03:24.255Z,4.53
2019-05-12T01:06:10.130Z,4.60
2019-05-12T01:08:57.938Z,4.77
2019-05-12T01:11:43.921Z,5.00
2019-05-12T01:14:30.192Z,4.20
2019-05-12T01:17:19.354Z,4.20
2019-05-12T01:20:05.485Z,3.90
2019-05-12T01:22:51.521Z,4.43
2019-05-12T01:25:39.426Z,4.40
2019-05-12T01:28:25.133Z,4.40
2019-05-12T01:31:12.725Z,4.17
2019-05-12T01:33:58.932Z,3.70
2019-05-12T01:36:44.890Z,4.03
2019-05-12T01:39:30.894Z,3.67
2019-05-12T01:42:18.091Z,4.17
2019-05-12T01:45:04.372Z,4.10
2019-05-12T01:47:50.481Z,3.70
2019-05-12T01:50:38.667Z,3.80
2019-05-12T01:53:24.471Z,3.97
2019-05-12T01:56:10.385Z,4.13
2019-05-12T01:58:57.855Z,3.60
2019-05-12T02:01:44.163Z,4.40
2019-05-12T02:04:32.207Z,3.90
2019-05-12T02:07:18.589Z,4.80
2019-05-12T02:10:04.510Z,4.47
2019-05-12T02:12:50.382Z,4.87
2019-05-12T02:15:38.327Z,4.23
2019-05-12T02:18:24.762Z,4.80
2019-05-12T02:21:10.799Z,4.70
2019-05-12T02:23:58.330Z,5.40
2019-05-12T02:26:48.652Z,5.13
2019-05-12T02:29:34.379Z,5.27
2019-05-12T02:32:25.245Z,4.70
2019-05-12T02:35:10.412Z,5.53
2019-05-12T02:37:56.505Z,4.20
2019-05-12T02:40:44.840Z,5.23
2019-05-12T02:43:30.736Z,4.13
2019-05-12T02:46:16.869Z,4.27
2019-05-12T02:49:04.920Z,3.93
2019-05-12T02:51:54.554Z,4.57
2019-05-12T02:54:51.801Z,5.10
2019-05-12T02:57:27.121Z,4.77
2019-05-12T03:00:15.892Z,4.47
2019-05-12T03:03:01.337Z,4.07
2019-05-12T03:05:47.595Z,4.60
2019-05-12T03:08:35.038Z,3.97
2019-05-12T03:11:24.620Z,4.43
2019-05-12T03:14:09.510Z,4.40
2019-05-12T03:16:55.703Z,4.53
2019-05-12T03:19:44.744Z,4.33
2019-05-12T03:22:30.709Z,4.77
2019-05-12T03:25:24.739Z,4.23
2019-05-12T03:28:08.267Z,4.93
2019-05-12T03:30:57.772Z,5.23
2019-05-12T03:33:43.468Z,4.43
2019-05-12T03:36:34.784Z,4.57
2019-05-12T03:39:15.969Z,4.43
2019-05-12T03:42:04.866Z,4.37
2019-05-12T03:44:49.875Z,4.50
2019-05-12T03:47:38.032Z,4.33
2019-05-12T03:50:24.657Z,4.53
2019-05-12T03:53:15.142Z,4.50
2019-05-12T03:55:59.668Z,4.50
2019-05-12T03:58:45.822Z,4.60
2019-05-12T04:01:35.878Z,4.40
2019-05-12T04:04:19.771Z,4.47
2019-05-12T04:07:05.757Z,4.73
2019-05-12T04:09:54.658Z,4.60
2019-05-12T04:12:40.150Z,4.80
2019-05-12T04:15:26.380Z,4.53
2019-05-12T04:18:16.067Z,4.23
2019-05-12T04:21:00.834Z,4.60
2019-05-12T04:23:46.814Z,4.33
2019-05-12T04:26:36.410Z,4.87
2019-05-12T04:29:20.853Z,5.63
2019-05-12T04:32:06.843Z,5.40
2019-05-12T04:34:55.034Z,5.50
2019-05-12T04:37:40.633Z,5.27
2019-05-12T04:40:26.914Z,6.23
2019-05-12T04:43:14.600Z,6.57
2019-05-12T04:46:01.489Z,6.23
2019-05-12T04:48:47.759Z,6.73
2019-05-12T04:51:35.063Z,6.30
2019-05-12T04:54:23.839Z,6.90
2019-05-12T04:57:09.168Z,6.60
2019-05-12T04:59:55.367Z,6.30
2019-05-12T05:02:41.560Z,7.63
2019-05-12T05:05:28.048Z,6.93
2019-05-12T05:08:19.337Z,6.97
2019-05-12T05:11:04.045Z,6.77
2019-05-12T05:13:49.691Z,6.50
2019-05-12T05:16:36.199Z,6.43
2019-05-12T05:19:24.389Z,6.90
2019-05-12T05:22:10.112Z,6.40
2019-05-12T05:24:56.340Z,8.33
2019-05-12T05:27:44.319Z,8.80
2019-05-12T05:30:30.205Z,8.67
2019-05-12T05:33:19.521Z,10.73
2019-05-12T05:36:04.166Z,11.50
2019-05-12T05:38:50.928Z,10.40
2019-05-12T05:41:40.200Z,9.23
2019-05-12T05:44:29.083Z,9.23
2019-05-12T05:47:13.969Z,7.80
2019-05-12T05:50:00.156Z,7.53
2019-05-12T05:52:46.463Z,7.93
2019-05-12T05:55:34.367Z,8.07
2019-05-12T05:58:20.416Z,8.63
2019-05-12T06:01:08.295Z,7.77
2019-05-12T06:03:58.302Z,8.80
2019-05-12T06:06:50.417Z,8.80
2019-05-12T06:09:33.933Z,7.87
2019-05-12T06:12:20.180Z,7.83
2019-05-12T06:15:08.819Z,7.07
2019-05-12T06:17:53.926Z,7.33
2019-05-12T06:20:40.284Z,7.30
2019-05-12T06:23:29.066Z,7.03
2019-05-12T06:26:14.440Z,8.47
2019-05-12T06:29:00.392Z,7.60
2019-05-12T06:31:47.146Z,8.37
2019-05-12T06:34:34.260Z,7.50
2019-05-12T06:37:20.358Z,7.23
2019-05-12T06:40:06.252Z,6.40
2019-05-12T06:42:54.090Z,6.93
2019-05-12T06:45:43.252Z,6.70
2019-05-12T06:48:30.186Z,6.00
2019-05-12T06:51:22.736Z,5.30
2019-05-12T06:54:07.279Z,5.00
2019-05-12T06:56:57.939Z,4.73
2019-05-12T06:59:41.966Z,5.00
2019-05-12T07:02:30.177Z,4.70
2019-05-12T07:05:14.901Z,4.50
2019-05-12T07:08:00.966Z,4.33
2019-05-12T07:11:00.861Z,3.63
2019-05-12T07:13:34.737Z,2.87
2019-05-12T07:16:29.963Z,2.87
2019-05-12T07:19:17.415Z,2.53
2019-05-12T07:22:00.295Z,2.60
2019-05-12T07:24:50.443Z,2.60
2019-05-12T07:27:39.341Z,3.00
2019-05-12T07:30:24.034Z,2.77
2019-05-12T07:33:14.572Z,3.17
2019-05-12T07:36:01.972Z,2.40
2019-05-12T07:38:48.739Z,2.17
2019-05-12T07:41:34.924Z,2.67
2019-05-12T07:44:25.210Z,2.10
2019-05-12T07:47:10.894Z,1.87
2019-05-12T07:49:57.015Z,2.53
2019-05-12T07:52:44.249Z,2.30
2019-05-12T07:55:30.575Z,1.90
2019-05-12T07:58:19.150Z,1.80
2019-05-12T08:01:07.778Z,1.50
2019-05-12T08:03:59.424Z,1.13
2019-05-12T08:06:42.550Z,1.10
2019-05-12T08:09:32.443Z,1.27
2019-05-12T08:12:20.827Z,0.80
2019-05-12T08:15:09.665Z,0.63
2019-05-12T08:17:59.336Z,0.70
2019-05-12T08:20:43.582Z,1.20
2019-05-12T08:23:29.647Z,1.20
2019-05-12T08:26:18.544Z,1.70
2019-05-12T08:29:04.294Z,2.17
2019-05-12T08:31:54.613Z,2.57
2019-05-12T08:34:40.012Z,2.23
2019-05-12T08:37:26.174Z,2.67
2019-05-12T08:40:12.505Z,2.07
2019-05-12T08:42:59.373Z,1.70
2019-05-12T08:45:46.247Z,2.53
2019-05-12T08:48:34.277Z,2.27
2019-05-12T08:51:20.230Z,2.10
2019-05-12T08:54:08.174Z,2.13
2019-05-12T08:56:59.248Z,2.43
2019-05-12T08:59:44.166Z,2.10
2019-05-12T09:02:29.889Z,1.90
2019-05-12T09:05:15.835Z,1.77
2019-05-12T09:08:03.773Z,2.37
2019-05-12T09:10:52.318Z,1.80
2019-05-12T09:13:37.530Z,1.90
2019-05-12T09:16:24.460Z,1.80
2019-05-12T09:19:18.241Z,1.90
2019-05-12T09:21:58.188Z,1.70
2019-05-12T09:24:44.580Z,1.67
2019-05-12T09:27:30.898Z,1.57
2019-05-12T09:30:17.072Z,1.67
2019-05-12T09:33:04.085Z,2.00
2019-05-12T09:35:50.527Z,1.60
2019-05-12T09:38:36.808Z,1.43
2019-05-12T09:41:24.079Z,1.30
2019-05-12T09:44:13.430Z,1.33
2019-05-12T09:46:59.425Z,1.40
2019-05-12T09:49:45.794Z,1.60
2019-05-12T09:52:33.379Z,1.50
2019-05-12T09:55:22.078Z,1.73
2019-05-12T09:58:07.442Z,1.47
2019-05-12T10:00:54.304Z,1.40
2019-05-12T10:03:43.904Z,1.23
2019-05-12T10:06:30.287Z,1.80
2019-05-12T10:09:19.715Z,1.53
2019-05-12T10:12:07.178Z,1.57
2019-05-12T10:14:53.576Z,1.77
2019-05-12T10:17:39.861Z,1.90
2019-05-12T10:20:29.228Z,1.77
2019-05-12T10:23:16.551Z,1.93
2019-05-12T10:26:09.418Z,1.80
2019-05-12T10:28:52.333Z,1.90
2019-05-12T10:31:39.349Z,1.80
2019-05-12T10:34:29.196Z,1.70
2019-05-12T10:37:13.530Z,1.63
2019-05-12T10:39:59.768Z,2.10
2019-05-12T10:42:49.666Z,1.80
2019-05-12T10:45:36.413Z,1.70
2019-05-12T10:48:23.342Z,2.03
2019-05-12T10:51:09.581Z,2.03
2019-05-12T10:54:01.831Z,1.90
2019-05-12T10:56:43.930Z,1.80
2019-05-12T10:59:33.341Z,2.00
2019-05-12T11:02:20.309Z,1.97
2019-05-12T11:05:05.555Z,1.50
2019-05-12T11:07:53.858Z,1.50
2019-05-12T11:10:39.551Z,1.70
2019-05-12T11:13:25.550Z,1.60
2019-05-12T11:16:14.666Z,1.40
2019-05-12T11:19:00.325Z,1.60
2019-05-12T11:21:47.782Z,1.67
2019-05-12T11:24:34.077Z,1.70
2019-05-12T11:27:20.104Z,2.17
2019-05-12T11:30:06.155Z,1.80
2019-05-12T11:32:54.086Z,1.60
2019-05-12T11:35:40.395Z,1.83
2019-05-12T11:38:26.642Z,1.70
2019-05-12T11:41:18.441Z,2.17
2019-05-12T11:44:00.475Z,1.90
2019-05-12T11:46:47.412Z,1.90
2019-05-12T11:49:33.690Z,2.00
2019-05-12T11:52:19.947Z,2.30
2019-05-12T11:55:06.529Z,3.43
2019-05-12T11:57:54.447Z,3.40
2019-05-12T12:00:44.099Z,2.30
2019-05-12T12:03:30.554Z,2.47
2019-05-12T12:06:16.966Z,3.40
2019-05-12T12:09:09.204Z,2.20
2019-05-12T12:11:54.690Z,1.90
2019-05-12T12:14:48.434Z,1.70
2019-05-12T12:17:30.910Z,1.67
2019-05-12T12:20:22.293Z,1.87
2019-05-12T12:23:09.497Z,1.70
2019-05-12T12:25:53.441Z,1.40
2019-05-12T12:28:39.639Z,1.57
2019-05-12T12:31:29.552Z,1.57
2019-05-12T12:34:15.590Z,3.03
2019-05-12T12:37:03.290Z,1.40
2019-05-12T12:39:49.535Z,1.60
2019-05-12T12:42:39.452Z,1.50
2019-05-12T12:45:43.445Z,1.53
2019-05-12T12:48:30.043Z,1.20
2019-05-12T12:51:17.568Z,1.60
2019-05-12T12:54:03.655Z,1.60
2019-05-12T12:56:49.970Z,1.40
2019-05-12T12:59:36.105Z,1.37
2019-05-12T13:02:24.539Z,1.20
2019-05-12T13:05:10.286Z,1.67
2019-05-12T13:07:56.207Z,1.33
2019-05-12T13:10:47.073Z,1.20
2019-05-12T13:13:30.474Z,1.43
2019-05-12T13:16:16.468Z,1.40
2019-05-12T13:19:06.114Z,1.60
2019-05-12T13:21:50.163Z,1.20
2019-05-12T13:24:36.081Z,1.63
2019-05-12T13:27:27.118Z,1.40
2019-05-12T13:30:16.281Z,1.50
2019-05-12T13:33:03.716Z,1.80
2019-05-12T13:35:55.093Z,1.20
2019-05-12T13:38:40.469Z,1.10
2019-05-12T13:41:25.483Z,1.10
2019-05-12T13:44:13.726Z,1.20
2019-05-12T13:46:59.145Z,1.63
2019-05-12T13:49:47.479Z,1.50
2019-05-12T13:52:33.290Z,1.70
2019-05-12T13:55:19.392Z,1.20
2019-05-12T13:58:05.531Z,1.33
2019-05-12T14:01:10.402Z,1.70
2019-05-12T14:03:45.197Z,1.40
2019-05-12T14:06:31.824Z,1.50
2019-05-12T14:09:15.501Z,1.30
2019-05-12T14:12:01.507Z,1.17
2019-05-12T14:14:47.586Z,1.27
2019-05-12T14:17:37.325Z,1.10
2019-05-12T14:20:23.747Z,1.20
2019-05-12T14:23:09.486Z,1.20
2019-05-12T14:25:55.466Z,1.20
2019-05-12T14:28:45.748Z,1.53
2019-05-12T14:31:35.144Z,1.67
2019-05-12T14:34:20.782Z,1.80
2019-05-12T14:37:10.029Z,2.00
2019-05-12T14:39:53.646Z,1.90
2019-05-12T14:42:40.076Z,1.63
2019-05-12T14:45:29.872Z,1.63
2019-05-12T14:48:14.255Z,1.40
2019-05-12T14:51:00.624Z,1.00
2019-05-12T14:53:48.113Z,1.27
2019-05-12T14:56:34.080Z,1.53
2019-05-12T14:59:20.406Z,1.37
2019-05-12T15:02:06.433Z,1.50
2019-05-12T15:04:54.275Z,1.10
2019-05-12T15:07:42.482Z,1.20
2019-05-12T15:10:28.485Z,1.30
2019-05-12T15:13:15.222Z,1.13
2019-05-12T15:16:01.294Z,1.23
2019-05-12T15:18:50.346Z,1.20
2019-05-12T15:21:36.676Z,1.10
2019-05-12T15:24:24.562Z,1.20
2019-05-12T15:27:10.702Z,1.47
2019-05-12T15:29:59.522Z,1.37
2019-05-12T15:32:45.014Z,1.37
2019-05-12T15:35:31.152Z,1.47
2019-05-12T15:38:17.144Z,1.20
2019-05-12T15:41:04.256Z,1.37
2019-05-12T15:43:52.906Z,1.30
2019-05-12T15:46:41.114Z,1.53
2019-05-12T15:49:26.358Z,1.53
2019-05-12T15:52:14.214Z,1.37
2019-05-12T15:55:00.489Z,1.33
2019-05-12T15:57:46.440Z,1.33
2019-05-12T16:00:34.401Z,1.40
2019-05-12T16:03:26.326Z,2.00
2019-05-12T16:06:14.696Z,1.60
2019-05-12T16:08:59.625Z,1.30
2019-05-12T16:11:45.717Z,1.50
2019-05-12T16:14:36.908Z,1.60
2019-05-12T16:17:25.064Z,1.60
2019-05-12T16:20:07.586Z,2.57
2019-05-12T16:22:53.672Z,2.23
2019-05-12T16:25:39.887Z,1.93
2019-05-12T16:28:26.761Z,2.17
2019-05-12T16:31:14.486Z,1.63
2019-05-12T16:34:05.461Z,2.00
2019-05-12T16:36:52.062Z,1.70
2019-05-12T16:39:44.234Z,2.10
2019-05-12T16:42:24.725Z,1.60
2019-05-12T16:45:10.712Z,1.80
2019-05-12T16:47:59.284Z,1.70
2019-05-12T16:50:44.513Z,2.03
2019-05-12T16:53:34.144Z,3.50
2019-05-12T16:56:28.036Z,4.53
2019-05-12T16:59:15.388Z,2.20
2019-05-12T17:02:04.746Z,2.43
2019-05-12T17:04:49.224Z,4.10
2019-05-12T17:07:35.582Z,2.60
2019-05-12T17:10:21.741Z,3.30
2019-05-12T17:13:13.140Z,3.13
2019-05-12T17:16:00.084Z,1.80
2019-05-12T17:18:44.314Z,2.10
2019-05-12T17:21:30.956Z,1.50
2019-05-12T17:24:17.181Z,1.50
2019-05-12T17:27:03.734Z,1.30
2019-05-12T17:29:49.765Z,1.20
2019-05-12T17:32:35.721Z,1.90
2019-05-12T17:35:26.966Z,1.37
2019-05-12T17:38:11.684Z,1.43
2019-05-12T17:41:00.720Z,2.40
2019-05-12T17:43:56.626Z,2.00
2019-05-12T17:46:38.018Z,1.77
2019-05-12T17:49:28.892Z,2.50
2019-05-12T17:52:17.339Z,1.70
2019-05-12T17:55:08.484Z,2.40
2019-05-12T17:57:50.268Z,3.00
2019-05-12T18:00:35.511Z,2.30
2019-05-12T18:03:24.659Z,2.00
2019-05-12T18:06:09.399Z,1.80
2019-05-12T18:08:55.396Z,1.67
2019-05-12T18:11:41.404Z,1.50
2019-05-12T18:14:29.364Z,1.80
2019-05-12T18:17:15.492Z,1.97
2019-05-12T18:20:04.146Z,2.60
2019-05-12T18:22:55.861Z,2.40
2019-05-12T18:25:44.158Z,3.73
2019-05-12T18:28:33.427Z,2.20
2019-05-12T18:31:19.433Z,3.13
2019-05-12T18:34:05.432Z,2.67
2019-05-12T18:36:56.273Z,2.40
2019-05-12T18:39:39.232Z,1.83
2019-05-12T18:42:25.267Z,2.87
2019-05-12T18:45:12.752Z,3.83
2019-05-12T18:48:01.164Z,4.97
2019-05-12T18:50:47.118Z,3.43
2019-05-12T18:53:34.884Z,2.60
2019-05-12T18:56:21.944Z,2.53
2019-05-12T18:59:11.772Z,3.17
2019-05-12T19:01:57.182Z,2.43
2019-05-12T19:04:44.319Z,2.13
2019-05-12T19:07:39.574Z,1.70
2019-05-12T19:10:18.639Z,3.20
2019-05-12T19:13:06.623Z,1.73
2019-05-12T19:16:02.546Z,2.17
2019-05-12T19:18:41.299Z,2.37
2019-05-12T19:21:27.513Z,2.30
2019-05-12T19:24:19.560Z,1.60
2019-05-12T19:27:04.215Z,1.50
2019-05-12T19:29:49.683Z,1.57
2019-05-12T19:32:38.878Z,1.70
2019-05-12T19:35:24.975Z,1.70
2019-05-12T19:38:13.404Z,2.20
2019-05-12T19:41:00.894Z,1.87
2019-05-12T19:43:49.514Z,3.00
2019-05-12T19:46:39.726Z,1.60
2019-05-12T19:49:29.636Z,1.90
2019-05-12T19:52:14.502Z,1.80
2019-05-12T19:55:00.571Z,1.67
2019-05-12T19:57:49.935Z,2.00
2019-05-12T20:00:35.073Z,2.00
2019-05-12T20:03:24.346Z,1.83
2019-05-12T20:06:10.455Z,1.60
2019-05-12T20:09:05.980Z,1.80
2019-05-12T20:11:44.708Z,1.40
2019-05-12T20:14:30.658Z,1.70
2019-05-12T20:17:16.825Z,1.70
2019-05-12T20:20:04.681Z,1.20
2019-05-12T20:22:50.992Z,1.10
2019-05-12T20:25:40.132Z,1.47
2019-05-12T20:28:26.136Z,1.90
2019-05-12T20:31:13.882Z,1.40
2019-05-12T20:34:08.628Z,1.53
2019-05-12T20:36:50.608Z,1.50
2019-05-12T20:39:39.647Z,1.50
2019-05-12T20:42:25.716Z,1.30
2019-05-12T20:45:13.622Z,1.10
2019-05-12T20:48:00.106Z,1.23
2019-05-12T20:50:46.079Z,1.40
2019-05-12T20:53:36.316Z,1.33
2019-05-12T20:56:22.204Z,1.83
2019-05-12T20:59:15.438Z,1.60
2019-05-12T21:01:58.220Z,1.40
2019-05-12T21:04:44.483Z,1.80
2019-05-12T21:07:30.460Z,1.30
2019-05-12T21:10:19.843Z,1.43
2019-05-12T21:13:07.469Z,2.13
2019-05-12T21:15:54.160Z,1.83
2019-05-12T21:18:47.895Z,1.90
2019-05-12T21:21:34.190Z,1.70
2019-05-12T21:24:18.931Z,1.60
2019-05-12T21:27:09.312Z,1.63
2019-05-12T21:29:55.134Z,2.03
2019-05-12T21:32:47.097Z,1.70
2019-05-12T21:35:40.364Z,1.60
2019-05-12T21:38:27.573Z,1.30
2019-05-12T21:41:10.007Z,1.50
2019-05-12T21:44:00.184Z,1.47
2019-05-12T21:46:46.899Z,1.73
2019-05-12T21:49:34.706Z,1.67
2019-05-12T21:52:20.901Z,1.80
2019-05-12T21:55:15.345Z,1.60
2019-05-12T21:57:55.012Z,1.30
2019-05-12T22:00:41.662Z,1.77
2019-05-12T22:03:27.911Z,1.70
2019-05-12T22:06:21.727Z,1.43
2019-05-12T22:09:06.446Z,1.50
2019-05-12T22:11:55.847Z,1.57
2019-05-12T22:14:46.009Z,1.93
2019-05-12T22:17:33.340Z,1.60
2019-05-12T22:20:20.120Z,1.40
2019-05-12T22:23:11.624Z,1.20
2019-05-12T22:25:58.016Z,1.60
2019-05-12T22:28:48.746Z,1.80
2019-05-12T22:31:33.342Z,1.90
2019-05-12T22:34:19.707Z,1.50
2019-05-12T22:37:05.715Z,1.50
2019-05-12T22:39:53.501Z,1.87
2019-05-12T22:42:39.883Z,1.90
2019-05-12T22:45:26.235Z,1.50
2019-05-12T22:48:12.384Z,1.63
2019-05-12T22:50:58.461Z,1.57
2019-05-12T22:53:44.362Z,1.50
2019-05-12T22:56:30.221Z,1.83
2019-05-12T22:59:16.562Z,1.87
2019-05-12T23:02:04.371Z,1.63
2019-05-12T23:04:50.618Z,1.80
2019-05-12T23:07:37.152Z,1.73
2019-05-12T23:10:23.259Z,1.50
2019-05-12T23:13:09.246Z,1.43
2019-05-12T23:15:55.303Z,1.70
2019-05-12T23:18:41.715Z,1.60
2019-05-12T23:21:27.893Z,1.57
2019-05-12T23:24:17.416Z,1.57
2019-05-12T23:27:04.850Z,1.80
2019-05-12T23:29:53.347Z,1.77
2019-05-12T23:32:42.930Z,2.10
2019-05-12T23:35:28.311Z,2.30
2019-05-12T23:38:20.758Z,1.87
2019-05-12T23:41:04.286Z,1.70
2019-05-12T23:43:51.000Z,1.40
2019-05-12T23:46:38.038Z,1.77
2019-05-12T23:49:24.559Z,1.60
2019-05-12T23:52:10.800Z,1.77
2019-05-12T23:54:57.059Z,1.47
2019-05-12T23:57:44.432Z,1.60
